Latest Weather Observations for Devonport Airport

IDT60801

Issued at 11:05 am EST Sunday 20 April 2014 (issued every 30 minutes, with the page automatically refreshed every 10 minutes)

About weather observations | Map of weather stations | Latest weather observations for TAS | Other Formats
Station Details ID: 091126 Name: DEVONPORT AIRPORT Lat: -41.17 Lon: 146.43 Height: 8.0 m
Data from the previous 72 hours. | See also: Recent months at Devonport Airport
Date/Time
EST
Temp
°C
App
Temp
°C
Dew
Point
Rel
Hum
%
Delta-T
°C
Wind Press
QNH
hPa
Press
MSL
hPa
Rain
since 9 am
mm
Dir
 
Spd
km/h
Gust
km/h
Spd
kts
Gust
kts
20/10:00am 13.3 10.7 9.4 77 2.0 NW 13 15 7 8 1013.6 - 0.0
20/09:30am 12.5 10.6 9.1 80 1.7 W 9 13 5 7 1014.0 - 0.0
20/09:00am 10.2 9.4 8.1 87 1.0 S 2 6 1 3 1014.2 1014.2 0.0
20/08:30am 8.3 5.8 6.6 89 0.8 S 9 11 5 6 1014.0 - 0.0
20/08:00am 7.6 4.6 6.1 90 0.7 S 11 11 6 6 1014.3 - 0.0
20/07:30am 5.9 2.2 4.5 91 0.6 S 13 15 7 8 1014.1 - 0.0
20/07:00am 5.0 1.5 3.5 90 0.6 S 11 13 6 7 1013.9 - 0.0
20/06:30am 5.9 2.5 4.2 89 0.7 S 11 13 6 7 1013.8 - 0.0
20/05:30am 4.7 1.5 3.2 90 0.6 S 9 11 5 6 1014.1 - 0.0
20/05:00am 4.5 1.3 2.8 89 0.7 S 9 11 5 6 1013.9 - 0.0
20/04:30am 4.7 1.5 2.9 88 0.7 S 9 11 5 6 1013.7 - 0.0
20/04:00am 4.4 1.1 2.6 88 0.7 S 9 11 5 6 1013.7 - 0.0
20/03:30am 4.4 1.5 2.4 87 0.8 SSW 7 9 4 5 1014.0 - 0.0
20/03:00am 4.5 1.2 2.4 86 0.8 S 9 11 5 6 1014.1 1014.1 0.0
20/02:30am 4.4 1.1 2.3 86 0.8 S 9 13 5 7 1014.2 - 0.0
20/02:00am 4.9 1.9 2.1 82 1.1 WSW 7 7 4 4 1014.5 - 0.0
20/01:30am 5.5 3.8 2.0 78 1.4 CALM 0 4 0 2 1014.8 - 0.0
20/01:00am 7.7 4.6 3.4 74 1.8 SSW 9 13 5 7 1014.9 - 0.0
20/12:30am 5.7 2.4 2.7 81 1.2 SW 9 11 5 6 1015.2 - 0.0
20/12:00am 5.8 2.6 3.0 82 1.2 W 9 13 5 7 1015.2 1015.2 0.0
 
Date/Time
EST
Temp
°C
App
Temp
°C
Dew
Point
Rel
Hum
%
Delta-T
°C
Wind Press
QNH
hPa
Press
MSL
hPa
Rain
since 9 am
mm
Dir
 
Spd
km/h
Gust
km/h
Spd
kts
Gust
kts
19/11:30pm 4.7 1.7 1.7 81 1.2 S 7 13 4 7 1015.1 - 0.0
19/11:00pm 6.6 3.3 2.3 74 1.8 WSW 9 13 5 7 1015.4 - 0.0
19/10:30pm 7.8 5.2 3.3 73 1.9 SW 6 9 3 5 1015.5 - 0.0
19/10:00pm 7.2 3.6 3.1 75 1.7 W 11 15 6 8 1015.9 - 0.0
19/09:00pm 7.0 4.3 2.7 74 1.8 W 6 9 3 5 1016.1 1016.1 0.0
19/08:30pm 7.5 4.8 2.8 72 2.0 W 6 9 3 5 1016.1 - 0.0
19/08:00pm 8.2 4.7 3.5 72 2.0 W 11 13 6 7 1016.0 - 0.0
19/07:30pm 8.7 5.3 3.9 72 2.1 W 11 13 6 7 1015.9 - 0.0
19/07:00pm 9.1 4.9 3.9 70 2.3 W 15 19 8 10 1015.7 - 0.0
19/06:30pm 10.1 5.6 4.3 67 2.6 W 17 20 9 11 1015.6 - 0.0
19/06:00pm 10.4 5.5 4.3 66 2.7 W 19 24 10 13 1015.4 1015.4 0.0
19/05:30pm 12.1 7.0 4.3 59 3.5 W 20 26 11 14 1015.4 - 0.0
19/05:00pm 13.4 7.3 4.8 56 4.0 W 26 32 14 17 1015.3 - 0.0
19/04:30pm 13.9 7.9 5.3 56 4.0 W 26 33 14 18 1015.3 - 0.0
19/04:00pm 14.3 8.4 5.7 56 4.1 W 26 32 14 17 1015.3 - 0.0
19/03:30pm 14.6 9.1 5.7 55 4.2 W 24 33 13 18 1015.3 - 0.0
19/03:00pm 14.7 9.6 6.0 56 4.2 W 22 30 12 16 1015.3 1015.3 0.0
19/02:30pm 14.6 9.6 6.4 58 4.0 W 22 28 12 15 1015.2 - 0.0
19/02:00pm 14.4 10.7 6.3 58 3.9 NW 15 20 8 11 1015.4 - 0.0
19/01:30pm 14.4 10.0 6.5 59 3.8 NW 19 22 10 12 1015.7 - 0.0
19/01:00pm 14.2 9.6 5.8 57 4.0 NNW 19 24 10 13 1015.9 - 0.0
19/12:30pm 14.0 9.8 5.9 58 3.8 NW 17 24 9 13 1016.3 - 0.0
19/12:00pm 14.2 9.4 5.8 57 4.0 WNW 20 28 11 15 1016.5 1016.5 0.0
19/11:30am 13.9 9.1 5.5 57 4.0 NW 20 26 11 14 1016.9 - 0.0
19/11:00am 14.2 9.8 4.8 53 4.4 WSW 17 24 9 13 1017.2 - 0.0
19/10:30am 13.6 9.0 3.9 52 4.4 WSW 17 24 9 13 1017.1 - 0.0
19/10:00am 13.2 8.2 3.8 53 4.2 WSW 19 24 10 13 1017.1 - 0.0
19/09:30am 12.6 7.7 4.3 57 3.8 W 19 24 10 13 1017.1 - 0.0
19/09:00am 12.2 8.0 5.8 65 3.0 W 17 20 9 11 1017.1 1017.1 4.2
19/08:30am 11.3 8.2 5.6 68 2.6 WSW 11 19 6 10 1017.1 - 4.2
19/08:00am 10.1 7.2 6.3 77 1.8 W 11 15 6 8 1017.0 - 4.2
19/07:30am 8.3 5.9 5.2 81 1.4 SW 7 11 4 6 1016.9 - 4.2
19/07:00am 6.5 1.9 3.8 83 1.1 WSW 17 20 9 11 1016.4 - 4.2
19/06:30am 6.6 2.8 4.1 84 1.1 W 13 17 7 9 1016.2 - 4.2
19/06:00am 6.2 2.0 3.7 84 1.1 W 15 17 8 9 1016.2 1016.2 4.2
19/05:30am 6.7 2.9 3.9 82 1.2 WSW 13 17 7 9 1016.0 - 4.2
19/05:00am 7.5 3.8 4.5 81 1.3 WSW 13 17 7 9 1015.9 - 4.2
19/04:30am 7.2 3.1 4.3 82 1.3 WSW 15 19 8 10 1015.7 - 4.2
19/04:00am 6.6 2.4 3.8 82 1.2 WSW 15 17 8 9 1015.7 - 4.2
19/03:30am 7.6 2.8 4.7 82 1.3 W 19 20 10 11 1015.7 - 4.2
19/03:00am 7.5 2.4 4.1 79 1.5 WSW 20 22 11 12 1015.5 1015.5 4.2
19/02:30am 8.0 3.6 4.6 79 1.5 W 17 20 9 11 1015.7 - 4.2
19/02:00am 7.8 4.1 4.4 79 1.5 W 13 17 7 9 1015.9 - 4.2
19/01:30am 8.2 3.1 4.2 76 1.7 W 20 24 11 13 1015.8 - 4.2
19/01:00am 8.8 4.0 4.4 74 1.9 W 19 20 10 11 1015.8 - 4.2
19/12:30am 9.1 3.7 4.3 72 2.1 WSW 22 26 12 14 1015.5 - 4.2
19/12:00am 9.3 3.9 4.5 72 2.1 WSW 22 28 12 15 1015.4 1015.4 4.2
 
Date/Time
EST
Temp
°C
App
Temp
°C
Dew
Point
Rel
Hum
%
Delta-T
°C
Wind Press
QNH
hPa
Press
MSL
hPa
Rain
since 9 am
mm
Dir
 
Spd
km/h
Gust
km/h
Spd
kts
Gust
kts
18/11:30pm 9.6 3.9 4.8 72 2.1 W 24 30 13 16 1015.5 - 4.2
18/11:00pm 9.5 4.2 4.9 73 2.1 W 22 26 12 14 1015.6 - 4.2
18/10:30pm 10.4 5.1 5.0 69 2.4 W 22 32 12 17 1015.6 - 4.2
18/10:00pm 10.9 5.3 5.2 68 2.6 WNW 24 32 13 17 1015.5 - 4.2
18/09:30pm 10.9 6.3 5.4 69 2.5 W 19 24 10 13 1015.4 - 4.2
18/09:00pm 11.6 5.7 3.9 59 3.4 WSW 24 41 13 22 1014.9 1014.9 4.2
18/08:30pm 12.0 4.9 3.8 57 3.7 SW 30 41 16 22 1014.1 - 4.2
18/08:09pm 11.5 4.2 4.3 61 3.2 WSW 32 50 17 27 1013.8 - 4.2
18/08:00pm 11.5 4.9 4.3 61 3.2 WSW 28 41 15 22 1013.9 - 4.2
18/07:30pm 11.7 5.5 4.4 61 3.3 WSW 26 39 14 21 1013.6 - 4.2
18/07:00pm 11.8 6.7 4.3 60 3.4 SW 20 28 11 15 1013.8 - 4.2
18/06:30pm 10.5 6.1 4.9 68 2.5 WSW 17 22 9 12 1013.4 - 4.2
18/06:00pm 12.3 7.1 5.5 63 3.2 W 22 32 12 17 1013.0 1013.0 4.2
18/05:30pm 12.4 7.1 5.1 61 3.4 WSW 22 30 12 16 1012.5 - 4.2
18/05:00pm 13.5 7.6 5.9 60 3.6 W 26 32 14 17 1012.0 - 4.2
18/04:30pm 14.6 8.8 4.6 51 4.6 WSW 24 33 13 18 1011.6 - 4.2
18/04:00pm 14.8 7.8 3.9 48 5.0 WSW 30 43 16 23 1011.3 - 4.2
18/03:30pm 15.5 8.2 5.4 51 4.8 WSW 33 43 18 23 1010.8 - 4.2
18/03:07pm 15.8 8.2 3.9 45 5.5 WSW 33 54 18 29 1010.4 - 4.2
18/03:00pm 16.2 9.4 5.2 48 5.2 WSW 30 44 16 24 1010.4 1010.4 4.2
18/02:30pm 16.4 9.1 4.4 45 5.6 WSW 32 50 17 27 1010.1 - 4.2
18/02:03pm 16.5 9.2 4.5 45 5.6 WSW 32 52 17 28 1009.8 - 4.2
18/02:00pm 16.9 9.9 6.1 49 5.3 WSW 32 41 17 22 1009.7 - 4.2
18/01:30pm 16.7 10.3 6.8 52 4.9 WSW 30 44 16 24 1009.4 - 4.2
18/01:00pm 15.6 8.5 6.6 55 4.4 SW 33 41 18 22 1009.4 - 4.2
18/12:30pm 14.8 9.0 8.1 64 3.4 WSW 28 35 15 19 1009.5 - 4.2
18/12:00pm 13.9 9.3 8.3 69 2.8 W 22 30 12 16 1009.8 1009.8 4.2
18/11:30am 12.9 9.8 9.0 77 2.0 SW 15 20 8 11 1008.7 - 4.2
18/11:00am 13.1 10.7 8.8 75 2.2 S 11 19 6 10 1008.9 - 4.2
18/10:30am 13.0 9.2 9.1 77 2.0 SSW 19 28 10 15 1009.9 - 4.2
18/10:04am 13.3 7.4 9.0 75 2.2 SW 30 48 16 26 1010.2 - 4.0
18/10:00am 13.4 7.1 9.1 75 2.2 SW 32 48 17 26 1010.3 - 4.0
18/09:44am 13.4 7.5 10.4 82 1.6 WSW 32 52 17 28 1010.2 - 3.6
18/09:41am 13.3 7.5 10.8 85 1.3 WSW 32 43 17 23 1010.2 - 3.4
18/09:30am 13.1 6.5 11.3 89 1.0 W 37 57 20 31 1009.6 - 3.2
18/09:23am 12.6 4.1 10.7 88 1.0 WSW 46 65 25 35 1009.6 - 3.2
18/09:16am 14.8 10.2 13.5 92 0.7 WNW 30 50 16 27 1009.5 - 1.2
18/09:04am 14.9 9.7 12.8 87 1.2 WNW 32 43 17 23 1009.6 - 0.0
18/09:00am 15.7 11.3 13.0 84 1.5 WNW 28 43 15 23 1009.7 1009.7 0.0
18/08:30am 16.1 11.7 12.8 81 1.8 W 28 33 15 18 1010.1 - 0.0
18/08:00am 16.1 12.0 12.7 80 1.9 W 26 33 14 18 1010.3 - 0.0
18/07:30am 15.8 11.2 12.2 79 2.0 W 28 43 15 23 1010.6 - 0.0
18/07:00am 17.0 12.7 13.3 79 2.1 NNW 28 35 15 19 1010.6 - 0.0
18/06:30am 16.9 12.1 13.0 78 2.2 NNW 30 37 16 20 1010.7 - 0.0
18/06:00am 16.7 12.6 12.7 77 2.2 NNW 26 32 14 17 1011.1 1011.1 0.0
18/05:30am 16.7 13.0 12.7 77 2.2 NNW 24 32 13 17 1011.4 - 0.0
18/05:00am 16.4 12.8 12.9 80 1.9 NNW 24 30 13 16 1011.9 - 0.0
18/04:30am 16.4 12.1 13.3 82 1.7 NNW 28 35 15 19 1012.3 - 0.0
18/04:28am 16.5 12.3 13.6 83 1.6 NNW 28 35 15 19 1012.4 - 0.0
18/04:00am 16.4 12.5 13.3 82 1.7 NNW 26 33 14 18 1012.7 - 0.0
18/03:30am 16.3 12.8 13.4 83 1.6 NNW 24 30 13 16 1013.0 - 0.0
18/03:24am 16.3 13.2 13.4 83 1.6 NNW 22 30 12 16 1013.1 - 0.0
18/03:00am 14.6 13.7 12.6 88 1.1 WSW 9 15 5 8 1013.6 1013.6 0.0
18/02:58am 14.5 13.2 12.5 88 1.1 WSW 11 17 6 9 1013.7 - 0.0
18/02:40am 14.6 12.9 12.5 87 1.1 W 13 28 7 15 1014.0 - 0.0
18/02:30am 16.4 13.1 14.1 86 1.3 NNW 24 30 13 16 1013.9 - 0.0
18/02:00am 13.0 12.3 12.1 94 0.5 SSE 7 9 4 5 1014.5 - 0.0
18/01:30am 12.7 11.6 11.8 94 0.5 SSE 9 11 5 6 1015.1 - 0.0
18/01:00am 12.4 10.8 11.5 94 0.5 S 11 13 6 7 1015.6 - 0.0
18/12:30am 12.1 10.7 11.0 93 0.6 SSW 9 11 5 6 1015.9 - 0.0
18/12:08am 12.1 10.3 11.0 93 0.6 S 11 13 6 7 1015.9 - 0.0
18/12:00am 12.1 10.0 11.0 93 0.6 S 13 13 7 7 1016.0 1016.0 0.0
 
Date/Time
EST
Temp
°C
App
Temp
°C
Dew
Point
Rel
Hum
%
Delta-T
°C
Wind Press
QNH
hPa
Press
MSL
hPa
Rain
since 9 am
mm
Dir
 
Spd
km/h
Gust
km/h
Spd
kts
Gust
kts
17/11:57pm 12.1 10.0 11.0 93 0.6 S 13 13 7 7 1016.0 - 0.0
17/11:30pm 12.0 10.5 10.7 92 0.7 SSE 9 11 5 6 1016.2 - 0.0
17/11:00pm 13.2 12.1 11.8 91 0.7 S 9 11 5 6 1016.9 - 0.0
17/10:30pm 13.3 12.1 11.7 90 0.9 E 9 11 5 6 1017.2 - 0.0
17/10:00pm 13.5 12.7 11.6 88 1.0 ENE 7 9 4 5 1017.6 - 0.0
17/09:30pm 15.3 14.4 12.6 84 1.5 NNE 9 11 5 6 1017.9 - 0.0
17/09:00pm 16.2 14.8 13.3 83 1.6 N 13 15 7 8 1018.1 1018.1 0.0
17/08:30pm 16.4 15.7 13.1 81 1.8 N 9 11 5 6 1018.2 - 0.0
17/08:00pm 16.2 15.0 12.7 80 1.9 N 11 13 6 7 1018.4 - 0.0
17/07:30pm 16.0 14.8 12.7 81 1.8 N 11 15 6 8 1018.4 - 0.0
17/07:00pm 15.5 13.2 11.7 78 2.1 N 15 19 8 10 1018.4 - 0.0
17/06:30pm 15.8 13.6 12.0 78 2.1 N 15 20 8 11 1018.4 - 0.0
17/06:00pm 16.0 13.5 12.4 79 2.0 N 17 20 9 11 1018.5 1018.5 0.0
17/05:30pm 16.6 14.2 12.8 78 2.1 N 17 20 9 11 1018.5 - 0.0
17/05:00pm 16.6 14.2 12.6 77 2.2 N 17 20 9 11 1018.5 - 0.0
17/04:30pm 17.3 14.9 12.6 74 2.6 N 17 20 9 11 1018.6 - 0.0
17/04:00pm 17.8 15.4 12.7 72 2.8 NNE 17 22 9 12 1018.8 - 0.0
17/03:30pm 17.9 14.9 11.9 68 3.3 N 19 22 10 12 1019.1 - 0.0
17/03:00pm 18.7 16.2 12.2 66 3.6 NNE 17 20 9 11 1019.3 1019.3 0.0
17/02:30pm 18.2 15.4 11.5 65 3.7 N 17 20 9 11 1019.6 - 0.0
17/02:00pm 18.7 16.7 14.0 74 2.7 NE 17 20 9 11 1019.8 - 0.0
17/01:30pm 17.7 15.6 13.6 77 2.3 NE 17 20 9 11 1019.9 - 0.0
17/01:00pm 17.6 15.4 13.3 76 2.4 NE 17 20 9 11 1020.2 - 0.0
17/12:30pm 18.0 15.4 13.1 73 2.8 NE 19 24 10 13 1020.6 - 0.0
17/12:00pm 18.0 15.3 12.9 72 2.8 NE 19 22 10 12 1020.9 1020.9 0.0
17/11:30am 17.8 15.0 12.5 71 2.9 NE 19 22 10 12 1021.1 - 0.0

Other Formats:

Comma delimited format used in spreadsheet applications
http://www.bom.gov.au/fwo/IDT60801/IDT60801.95960.axf

JavaScript Object Notation format (JSON) in row-major order
http://www.bom.gov.au/fwo/IDT60801/IDT60801.95960.json